sensor_id;sensor_type;location;lat;lon;timestamp;temperature;humidity
52107;DHT22;38105;52.968;5.974;2023-07-13T00:01:56;17.50;99.90
52107;DHT22;38105;52.968;5.974;2023-07-13T00:04:24;17.50;99.90
52107;DHT22;38105;52.968;5.974;2023-07-13T00:06:51;17.40;99.90
52107;DHT22;38105;52.968;5.974;2023-07-13T00:09:17;17.40;99.90
52107;DHT22;38105;52.968;5.974;2023-07-13T00:11:44;17.40;99.90
52107;DHT22;38105;52.968;5.974;2023-07-13T00:14:11;17.30;99.90
52107;DHT22;38105;52.968;5.974;2023-07-13T00:16:38;17.30;99.90
52107;DHT22;38105;52.968;5.974;2023-07-13T00:19:05;17.20;99.90
52107;DHT22;38105;52.968;5.974;2023-07-13T00:21:31;17.20;99.90
52107;DHT22;38105;52.968;5.974;2023-07-13T00:23:57;17.20;99.90
52107;DHT22;38105;52.968;5.974;2023-07-13T00:26:23;17.20;99.90
52107;DHT22;38105;52.968;5.974;2023-07-13T00:28:49;17.20;99.90
52107;DHT22;38105;52.968;5.974;2023-07-13T00:31:15;17.10;99.90
52107;DHT22;38105;52.968;5.974;2023-07-13T00:33:41;17.10;99.90
52107;DHT22;38105;52.968;5.974;2023-07-13T00:36:08;17.10;99.90
52107;DHT22;38105;52.968;5.974;2023-07-13T00:38:34;17.10;99.90
52107;DHT22;38105;52.968;5.974;2023-07-13T00:41:00;17.10;99.90
52107;DHT22;38105;52.968;5.974;2023-07-13T00:43:28;17.10;99.90
52107;DHT22;38105;52.968;5.974;2023-07-13T00:48:27;17.10;99.90
52107;DHT22;38105;52.968;5.974;2023-07-13T00:50:56;17.20;99.90
52107;DHT22;38105;52.968;5.974;2023-07-13T00:53:25;17.20;99.90
52107;DHT22;38105;52.968;5.974;2023-07-13T00:55:52;17.20;99.90
52107;DHT22;38105;52.968;5.974;2023-07-13T00:58:22;17.30;99.90
52107;DHT22;38105;52.968;5.974;2023-07-13T01:00:49;17.30;99.90
52107;DHT22;38105;52.968;5.974;2023-07-13T01:03:16;17.30;99.90
52107;DHT22;38105;52.968;5.974;2023-07-13T01:05:42;17.30;99.90
52107;DHT22;38105;52.968;5.974;2023-07-13T01:08:08;17.30;99.90
52107;DHT22;38105;52.968;5.974;2023-07-13T01:10:34;17.30;99.90
52107;DHT22;38105;52.968;5.974;2023-07-13T01:13:09;17.20;99.90
52107;DHT22;38105;52.968;5.974;2023-07-13T01:15:37;17.20;99.90
52107;DHT22;38105;52.968;5.974;2023-07-13T01:18:05;17.20;99.90
52107;DHT22;38105;52.968;5.974;2023-07-13T01:20:31;17.10;99.90
52107;DHT22;38105;52.968;5.974;2023-07-13T01:23:06;17.10;99.90
52107;DHT22;38105;52.968;5.974;2023-07-13T01:25:34;17.10;99.90
52107;DHT22;38105;52.968;5.974;2023-07-13T01:28:01;17.00;99.90
52107;DHT22;38105;52.968;5.974;2023-07-13T01:30:27;17.00;99.90
52107;DHT22;38105;52.968;5.974;2023-07-13T01:32:53;17.00;99.90
52107;DHT22;38105;52.968;5.974;2023-07-13T01:35:21;16.90;99.90
52107;DHT22;38105;52.968;5.974;2023-07-13T01:37:47;16.90;99.90
52107;DHT22;38105;52.968;5.974;2023-07-13T01:40:13;16.90;99.90
52107;DHT22;38105;52.968;5.974;2023-07-13T01:42:38;16.80;99.90
52107;DHT22;38105;52.968;5.974;2023-07-13T01:45:05;16.90;99.90
52107;DHT22;38105;52.968;5.974;2023-07-13T01:47:31;16.80;99.90
52107;DHT22;38105;52.968;5.974;2023-07-13T01:49:57;16.80;99.90
52107;DHT22;38105;52.968;5.974;2023-07-13T01:52:23;16.80;99.90
52107;DHT22;38105;52.968;5.974;2023-07-13T01:54:49;16.80;99.90
52107;DHT22;38105;52.968;5.974;2023-07-13T01:57:15;16.80;99.90
52107;DHT22;38105;52.968;5.974;2023-07-13T01:59:43;16.70;99.90
52107;DHT22;38105;52.968;5.974;2023-07-13T02:02:09;16.80;99.90
52107;DHT22;38105;52.968;5.974;2023-07-13T02:04:35;16.80;99.90
52107;DHT22;38105;52.968;5.974;2023-07-13T02:07:00;16.80;99.90
52107;DHT22;38105;52.968;5.974;2023-07-13T02:09:26;16.80;99.90
52107;DHT22;38105;52.968;5.974;2023-07-13T02:11:52;16.70;99.90
52107;DHT22;38105;52.968;5.974;2023-07-13T02:14:18;16.80;99.90
52107;DHT22;38105;52.968;5.974;2023-07-13T02:16:43;16.70;99.90
52107;DHT22;38105;52.968;5.974;2023-07-13T02:19:09;16.70;99.90
52107;DHT22;38105;52.968;5.974;2023-07-13T02:21:35;16.70;99.90
52107;DHT22;38105;52.968;5.974;2023-07-13T02:24:01;16.70;99.90
52107;DHT22;38105;52.968;5.974;2023-07-13T02:26:27;16.70;99.90
52107;DHT22;38105;52.968;5.974;2023-07-13T02:28:53;16.70;99.90
52107;DHT22;38105;52.968;5.974;2023-07-13T02:31:19;16.70;99.90
52107;DHT22;38105;52.968;5.974;2023-07-13T02:33:45;16.60;99.90
52107;DHT22;38105;52.968;5.974;2023-07-13T02:36:13;16.60;99.90
52107;DHT22;38105;52.968;5.974;2023-07-13T02:38:42;16.70;99.90
52107;DHT22;38105;52.968;5.974;2023-07-13T02:41:08;16.70;99.90
52107;DHT22;38105;52.968;5.974;2023-07-13T02:43:35;16.70;99.90
52107;DHT22;38105;52.968;5.974;2023-07-13T02:46:02;16.70;99.90
52107;DHT22;38105;52.968;5.974;2023-07-13T02:48:33;16.70;99.90
52107;DHT22;38105;52.968;5.974;2023-07-13T02:50:59;16.80;99.90
52107;DHT22;38105;52.968;5.974;2023-07-13T02:53:25;16.90;99.90
52107;DHT22;38105;52.968;5.974;2023-07-13T02:55:51;16.90;99.90
52107;DHT22;38105;52.968;5.974;2023-07-13T02:58:17;17.00;99.90
52107;DHT22;38105;52.968;5.974;2023-07-13T03:00:44;17.00;99.90
52107;DHT22;38105;52.968;5.974;2023-07-13T03:03:12;17.00;99.90
52107;DHT22;38105;52.968;5.974;2023-07-13T03:05:44;17.00;99.90
52107;DHT22;38105;52.968;5.974;2023-07-13T03:08:11;17.00;99.90
52107;DHT22;38105;52.968;5.974;2023-07-13T03:10:37;17.00;99.90
52107;DHT22;38105;52.968;5.974;2023-07-13T03:13:05;17.00;99.90
52107;DHT22;38105;52.968;5.974;2023-07-13T03:15:31;17.00;99.90
52107;DHT22;38105;52.968;5.974;2023-07-13T03:17:56;17.10;99.90
52107;DHT22;38105;52.968;5.974;2023-07-13T03:20:25;16.90;99.90
52107;DHT22;38105;52.968;5.974;2023-07-13T03:22:51;16.90;99.90
52107;DHT22;38105;52.968;5.974;2023-07-13T03:25:17;16.90;99.90
52107;DHT22;38105;52.968;5.974;2023-07-13T03:27:45;16.80;99.90
52107;DHT22;38105;52.968;5.974;2023-07-13T03:30:11;16.90;99.90
52107;DHT22;38105;52.968;5.974;2023-07-13T03:32:37;16.80;99.90
52107;DHT22;38105;52.968;5.974;2023-07-13T03:35:03;16.80;99.90
52107;DHT22;38105;52.968;5.974;2023-07-13T03:37:29;16.80;99.90
52107;DHT22;38105;52.968;5.974;2023-07-13T03:39:54;16.70;99.90
52107;DHT22;38105;52.968;5.974;2023-07-13T03:42:20;16.70;99.90
52107;DHT22;38105;52.968;5.974;2023-07-13T03:44:46;16.70;99.90
52107;DHT22;38105;52.968;5.974;2023-07-13T03:47:17;16.70;99.90
52107;DHT22;38105;52.968;5.974;2023-07-13T03:49:43;16.70;99.90
52107;DHT22;38105;52.968;5.974;2023-07-13T03:52:09;16.70;99.90
52107;DHT22;38105;52.968;5.974;2023-07-13T03:54:34;16.70;99.90
52107;DHT22;38105;52.968;5.974;2023-07-13T03:57:00;16.70;99.90
52107;DHT22;38105;52.968;5.974;2023-07-13T03:59:26;16.70;99.90
52107;DHT22;38105;52.968;5.974;2023-07-13T04:01:52;16.70;99.90
52107;DHT22;38105;52.968;5.974;2023-07-13T04:04:20;16.70;99.90
52107;DHT22;38105;52.968;5.974;2023-07-13T04:06:46;16.70;99.90
52107;DHT22;38105;52.968;5.974;2023-07-13T04:09:15;16.80;99.90
52107;DHT22;38105;52.968;5.974;2023-07-13T04:11:41;16.70;99.90
52107;DHT22;38105;52.968;5.974;2023-07-13T04:14:06;16.70;99.90
52107;DHT22;38105;52.968;5.974;2023-07-13T04:16:32;16.80;99.90
52107;DHT22;38105;52.968;5.974;2023-07-13T04:18:58;16.70;99.90
52107;DHT22;38105;52.968;5.974;2023-07-13T04:21:28;16.80;99.90
52107;DHT22;38105;52.968;5.974;2023-07-13T04:23:54;16.80;99.90
52107;DHT22;38105;52.968;5.974;2023-07-13T04:26:20;16.80;99.90
52107;DHT22;38105;52.968;5.974;2023-07-13T04:28:48;16.90;99.90
52107;DHT22;38105;52.968;5.974;2023-07-13T04:31:14;17.00;99.90
52107;DHT22;38105;52.968;5.974;2023-07-13T04:33:40;17.30;99.90
52107;DHT22;38105;52.968;5.974;2023-07-13T04:36:09;17.90;99.90
52107;DHT22;38105;52.968;5.974;2023-07-13T04:38:35;18.70;99.90
52107;DHT22;38105;52.968;5.974;2023-07-13T04:41:04;19.20;99.90
52107;DHT22;38105;52.968;5.974;2023-07-13T04:43:30;19.90;99.90
52107;DHT22;38105;52.968;5.974;2023-07-13T04:46:08;20.30;99.90
52107;DHT22;38105;52.968;5.974;2023-07-13T04:48:37;20.70;99.90
52107;DHT22;38105;52.968;5.974;2023-07-13T04:51:04;21.40;99.90
52107;DHT22;38105;52.968;5.974;2023-07-13T04:53:30;21.70;99.90
52107;DHT22;38105;52.968;5.974;2023-07-13T04:55:56;22.00;99.90
52107;DHT22;38105;52.968;5.974;2023-07-13T04:58:23;22.40;99.90
52107;DHT22;38105;52.968;5.974;2023-07-13T05:00:51;22.70;99.90
52107;DHT22;38105;52.968;5.974;2023-07-13T05:03:17;23.10;99.90
52107;DHT22;38105;52.968;5.974;2023-07-13T05:05:43;23.50;99.90
52107;DHT22;38105;52.968;5.974;2023-07-13T05:08:11;23.70;99.90
52107;DHT22;38105;52.968;5.974;2023-07-13T05:10:37;24.10;99.90
52107;DHT22;38105;52.968;5.974;2023-07-13T05:13:02;24.50;99.90
52107;DHT22;38105;52.968;5.974;2023-07-13T05:15:37;24.60;99.90
52107;DHT22;38105;52.968;5.974;2023-07-13T05:18:03;24.80;99.90
52107;DHT22;38105;52.968;5.974;2023-07-13T05:20:29;24.40;99.90
52107;DHT22;38105;52.968;5.974;2023-07-13T05:22:55;24.60;99.90
52107;DHT22;38105;52.968;5.974;2023-07-13T05:25:20;24.90;99.90
52107;DHT22;38105;52.968;5.974;2023-07-13T05:27:47;25.40;99.90
52107;DHT22;38105;52.968;5.974;2023-07-13T05:30:13;25.50;99.90
52107;DHT22;38105;52.968;5.974;2023-07-13T05:32:42;26.20;99.90
52107;DHT22;38105;52.968;5.974;2023-07-13T05:35:08;26.30;99.90
52107;DHT22;38105;52.968;5.974;2023-07-13T05:37:34;26.80;99.90
52107;DHT22;38105;52.968;5.974;2023-07-13T05:40:06;26.90;99.90
52107;DHT22;38105;52.968;5.974;2023-07-13T05:42:32;26.80;99.90
52107;DHT22;38105;52.968;5.974;2023-07-13T05:44:58;27.20;99.90
52107;DHT22;38105;52.968;5.974;2023-07-13T05:47:23;27.50;99.90
52107;DHT22;38105;52.968;5.974;2023-07-13T05:49:49;28.00;99.90
52107;DHT22;38105;52.968;5.974;2023-07-13T05:52:15;27.80;99.90
52107;DHT22;38105;52.968;5.974;2023-07-13T05:54:43;28.10;99.90
52107;DHT22;38105;52.968;5.974;2023-07-13T05:57:09;28.60;99.90
52107;DHT22;38105;52.968;5.974;2023-07-13T05:59:35;28.70;99.90
52107;DHT22;38105;52.968;5.974;2023-07-13T06:02:01;29.00;99.90
52107;DHT22;38105;52.968;5.974;2023-07-13T06:04:27;28.80;99.90
52107;DHT22;38105;52.968;5.974;2023-07-13T06:06:52;29.10;99.90
52107;DHT22;38105;52.968;5.974;2023-07-13T06:09:18;29.60;99.90
52107;DHT22;38105;52.968;5.974;2023-07-13T06:11:44;29.70;99.90
52107;DHT22;38105;52.968;5.974;2023-07-13T06:14:12;30.10;99.90
52107;DHT22;38105;52.968;5.974;2023-07-13T06:16:40;30.60;99.90
52107;DHT22;38105;52.968;5.974;2023-07-13T06:19:06;30.60;99.90
52107;DHT22;38105;52.968;5.974;2023-07-13T06:21:32;30.70;99.90
52107;DHT22;38105;52.968;5.974;2023-07-13T06:23:58;29.50;99.90
52107;DHT22;38105;52.968;5.974;2023-07-13T06:26:24;28.80;99.90
52107;DHT22;38105;52.968;5.974;2023-07-13T06:28:50;28.80;99.90
52107;DHT22;38105;52.968;5.974;2023-07-13T06:31:15;28.30;99.90
52107;DHT22;38105;52.968;5.974;2023-07-13T06:33:41;28.50;99.90
52107;DHT22;38105;52.968;5.974;2023-07-13T06:36:08;27.70;99.90
52107;DHT22;38105;52.968;5.974;2023-07-13T06:38:35;27.20;99.90
52107;DHT22;38105;52.968;5.974;2023-07-13T06:41:01;27.50;99.90
52107;DHT22;38105;52.968;5.974;2023-07-13T06:43:27;28.30;99.90
52107;DHT22;38105;52.968;5.974;2023-07-13T06:45:55;28.80;99.90
52107;DHT22;38105;52.968;5.974;2023-07-13T06:48:21;28.80;99.90
52107;DHT22;38105;52.968;5.974;2023-07-13T06:50:48;27.80;99.90
52107;DHT22;38105;52.968;5.974;2023-07-13T06:53:19;27.20;99.90
52107;DHT22;38105;52.968;5.974;2023-07-13T06:55:45;26.50;99.90
52107;DHT22;38105;52.968;5.974;2023-07-13T06:58:11;26.10;99.90
52107;DHT22;38105;52.968;5.974;2023-07-13T07:00:37;25.30;99.90
52107;DHT22;38105;52.968;5.974;2023-07-13T07:03:06;24.80;99.90
52107;DHT22;38105;52.968;5.974;2023-07-13T07:05:31;24.40;99.90
52107;DHT22;38105;52.968;5.974;2023-07-13T07:07:58;23.80;99.90
52107;DHT22;38105;52.968;5.974;2023-07-13T07:10:24;23.50;99.90
52107;DHT22;38105;52.968;5.974;2023-07-13T07:12:50;23.40;99.90
52107;DHT22;38105;52.968;5.974;2023-07-13T07:15:17;23.40;99.90
52107;DHT22;38105;52.968;5.974;2023-07-13T07:17:43;23.50;99.90
52107;DHT22;38105;52.968;5.974;2023-07-13T07:20:09;23.50;99.90
52107;DHT22;38105;52.968;5.974;2023-07-13T07:22:35;23.50;99.90
52107;DHT22;38105;52.968;5.974;2023-07-13T07:25:01;23.20;99.90
52107;DHT22;38105;52.968;5.974;2023-07-13T07:27:27;23.10;99.90
52107;DHT22;38105;52.968;5.974;2023-07-13T07:29:53;22.90;99.90
52107;DHT22;38105;52.968;5.974;2023-07-13T07:32:19;22.70;99.90
52107;DHT22;38105;52.968;5.974;2023-07-13T07:34:45;22.50;99.90
52107;DHT22;38105;52.968;5.974;2023-07-13T07:37:13;22.20;99.90
52107;DHT22;38105;52.968;5.974;2023-07-13T07:39:39;21.90;99.90
52107;DHT22;38105;52.968;5.974;2023-07-13T07:42:05;21.70;99.90
52107;DHT22;38105;52.968;5.974;2023-07-13T07:44:34;21.50;99.90
52107;DHT22;38105;52.968;5.974;2023-07-13T07:47:00;21.50;99.90
52107;DHT22;38105;52.968;5.974;2023-07-13T07:49:27;21.60;99.90
52107;DHT22;38105;52.968;5.974;2023-07-13T07:51:53;21.90;99.90
52107;DHT22;38105;52.968;5.974;2023-07-13T07:54:22;21.90;99.90
52107;DHT22;38105;52.968;5.974;2023-07-13T07:56:47;22.00;99.90
52107;DHT22;38105;52.968;5.974;2023-07-13T07:59:13;22.20;99.90
52107;DHT22;38105;52.968;5.974;2023-07-13T08:01:39;23.60;99.90
52107;DHT22;38105;52.968;5.974;2023-07-13T08:04:05;24.20;99.90
52107;DHT22;38105;52.968;5.974;2023-07-13T08:06:34;24.60;99.90
52107;DHT22;38105;52.968;5.974;2023-07-13T08:09:00;24.80;99.90
52107;DHT22;38105;52.968;5.974;2023-07-13T08:11:26;24.40;99.90
52107;DHT22;38105;52.968;5.974;2023-07-13T08:13:52;24.00;99.90
52107;DHT22;38105;52.968;5.974;2023-07-13T08:16:18;23.70;99.90
52107;DHT22;38105;52.968;5.974;2023-07-13T08:18:43;23.70;99.90
52107;DHT22;38105;52.968;5.974;2023-07-13T08:21:09;23.50;99.90
52107;DHT22;38105;52.968;5.974;2023-07-13T08:23:35;23.80;99.90
52107;DHT22;38105;52.968;5.974;2023-07-13T08:26:02;24.20;99.90
52107;DHT22;38105;52.968;5.974;2023-07-13T08:28:29;24.20;99.90
52107;DHT22;38105;52.968;5.974;2023-07-13T08:30:54;24.40;99.90
52107;DHT22;38105;52.968;5.974;2023-07-13T08:33:22;24.80;99.90
52107;DHT22;38105;52.968;5.974;2023-07-13T08:35:51;25.50;99.90
52107;DHT22;38105;52.968;5.974;2023-07-13T08:38:17;26.60;99.90
52107;DHT22;38105;52.968;5.974;2023-07-13T08:40:44;27.50;99.90
52107;DHT22;38105;52.968;5.974;2023-07-13T08:43:16;27.90;99.90
52107;DHT22;38105;52.968;5.974;2023-07-13T08:45:52;28.70;99.90
52107;DHT22;38105;52.968;5.974;2023-07-13T08:54:34;30.90;99.50
52107;DHT22;38105;52.968;5.974;2023-07-13T08:57:14;31.20;98.80
52107;DHT22;38105;52.968;5.974;2023-07-13T08:59:46;30.30;99.90
52107;DHT22;38105;52.968;5.974;2023-07-13T09:08:04;27.90;99.90
52107;DHT22;38105;52.968;5.974;2023-07-13T09:11:11;27.40;99.90
52107;DHT22;38105;52.968;5.974;2023-07-13T09:14:00;26.70;99.90
52107;DHT22;38105;52.968;5.974;2023-07-13T09:16:32;25.60;99.90
52107;DHT22;38105;52.968;5.974;2023-07-13T09:19:04;25.20;99.90
52107;DHT22;38105;52.968;5.974;2023-07-13T09:21:32;24.60;99.90
52107;DHT22;38105;52.968;5.974;2023-07-13T09:24:27;24.20;99.90
52107;DHT22;38105;52.968;5.974;2023-07-13T09:26:54;23.60;99.90
52107;DHT22;38105;52.968;5.974;2023-07-13T09:29:28;23.60;99.90
52107;DHT22;38105;52.968;5.974;2023-07-13T09:31:57;23.60;99.90
52107;DHT22;38105;52.968;5.974;2023-07-13T09:34:25;23.40;99.90
52107;DHT22;38105;52.968;5.974;2023-07-13T09:36:51;23.50;99.90
52107;DHT22;38105;52.968;5.974;2023-07-13T09:39:36;23.30;99.90
52107;DHT22;38105;52.968;5.974;2023-07-13T09:42:17;23.00;99.90
52107;DHT22;38105;52.968;5.974;2023-07-13T09:45:02;22.80;99.90
52107;DHT22;38105;52.968;5.974;2023-07-13T09:47:33;22.60;99.90
52107;DHT22;38105;52.968;5.974;2023-07-13T09:50:14;22.60;99.90
52107;DHT22;38105;52.968;5.974;2023-07-13T09:52:46;22.60;99.90
52107;DHT22;38105;52.968;5.974;2023-07-13T09:55:26;22.60;99.90
52107;DHT22;38105;52.968;5.974;2023-07-13T09:57:53;22.40;99.90
52107;DHT22;38105;52.968;5.974;2023-07-13T10:00:24;22.80;99.90
52107;DHT22;38105;52.968;5.974;2023-07-13T10:02:59;23.40;99.90
52107;DHT22;38105;52.968;5.974;2023-07-13T10:05:36;24.30;99.90
52107;DHT22;38105;52.968;5.974;2023-07-13T10:08:02;25.20;99.90
52107;DHT22;38105;52.968;5.974;2023-07-13T10:10:31;25.50;99.90
52107;DHT22;38105;52.968;5.974;2023-07-13T10:12:56;26.20;99.90
52107;DHT22;38105;52.968;5.974;2023-07-13T10:15:24;26.40;99.90
52107;DHT22;38105;52.968;5.974;2023-07-13T10:17:53;27.20;99.90
52107;DHT22;38105;52.968;5.974;2023-07-13T10:20:21;27.10;99.90
52107;DHT22;38105;52.968;5.974;2023-07-13T10:25:24;26.20;99.90
52107;DHT22;38105;52.968;5.974;2023-07-13T10:27:53;26.10;99.90
52107;DHT22;38105;52.968;5.974;2023-07-13T10:30:22;25.50;99.90
52107;DHT22;38105;52.968;5.974;2023-07-13T10:32:51;25.40;99.90
52107;DHT22;38105;52.968;5.974;2023-07-13T10:35:23;25.00;99.90
52107;DHT22;38105;52.968;5.974;2023-07-13T10:38:32;24.50;99.90
52107;DHT22;38105;52.968;5.974;2023-07-13T10:41:20;24.40;99.90
52107;DHT22;38105;52.968;5.974;2023-07-13T10:43:50;24.10;99.90
52107;DHT22;38105;52.968;5.974;2023-07-13T10:46:19;24.20;99.90
52107;DHT22;38105;52.968;5.974;2023-07-13T10:48:52;24.10;99.90
52107;DHT22;38105;52.968;5.974;2023-07-13T10:51:19;23.90;99.90
52107;DHT22;38105;52.968;5.974;2023-07-13T10:54:21;23.80;99.90
52107;DHT22;38105;52.968;5.974;2023-07-13T10:56:50;24.00;99.90
52107;DHT22;38105;52.968;5.974;2023-07-13T10:59:22;24.10;99.90
52107;DHT22;38105;52.968;5.974;2023-07-13T11:01:55;24.20;99.90
52107;DHT22;38105;52.968;5.974;2023-07-13T11:04:22;24.30;99.90
52107;DHT22;38105;52.968;5.974;2023-07-13T11:06:53;24.40;99.90
52107;DHT22;38105;52.968;5.974;2023-07-13T11:09:42;24.80;99.90
52107;DHT22;38105;52.968;5.974;2023-07-13T11:17:47;24.50;99.90
52107;DHT22;38105;52.968;5.974;2023-07-13T11:22:53;24.10;99.90
52107;DHT22;38105;52.968;5.974;2023-07-13T11:25:34;23.70;99.90
52107;DHT22;38105;52.968;5.974;2023-07-13T11:28:16;23.90;99.90
52107;DHT22;38105;52.968;5.974;2023-07-13T11:33:51;24.30;99.90
52107;DHT22;38105;52.968;5.974;2023-07-13T11:36:17;24.20;99.90
52107;DHT22;38105;52.968;5.974;2023-07-13T11:39:05;24.20;99.90
52107;DHT22;38105;52.968;5.974;2023-07-13T11:42:04;24.10;99.90
52107;DHT22;38105;52.968;5.974;2023-07-13T11:44:30;23.80;99.90
52107;DHT22;38105;52.968;5.974;2023-07-13T11:47:08;24.10;99.90
52107;DHT22;38105;52.968;5.974;2023-07-13T11:49:44;24.10;99.90
52107;DHT22;38105;52.968;5.974;2023-07-13T11:52:19;24.40;99.90
52107;DHT22;38105;52.968;5.974;2023-07-13T11:54:52;24.60;99.90
52107;DHT22;38105;52.968;5.974;2023-07-13T11:57:35;24.40;99.90
52107;DHT22;38105;52.968;5.974;2023-07-13T12:00:20;24.60;99.90
52107;DHT22;38105;52.968;5.974;2023-07-13T12:02:49;24.80;99.90
52107;DHT22;38105;52.968;5.974;2023-07-13T12:05:17;25.00;99.90
52107;DHT22;38105;52.968;5.974;2023-07-13T12:07:47;24.90;99.90
52107;DHT22;38105;52.968;5.974;2023-07-13T12:12:54;25.10;99.90
52107;DHT22;38105;52.968;5.974;2023-07-13T12:15:22;25.20;99.90
52107;DHT22;38105;52.968;5.974;2023-07-13T12:17:49;25.30;99.90
52107;DHT22;38105;52.968;5.974;2023-07-13T12:20:26;25.40;99.90
52107;DHT22;38105;52.968;5.974;2023-07-13T12:22:52;25.30;99.90
52107;DHT22;38105;52.968;5.974;2023-07-13T12:25:29;25.50;99.90
52107;DHT22;38105;52.968;5.974;2023-07-13T12:27:55;25.30;99.90
52107;DHT22;38105;52.968;5.974;2023-07-13T12:30:31;25.30;99.90
52107;DHT22;38105;52.968;5.974;2023-07-13T12:33:10;24.80;99.90
52107;DHT22;38105;52.968;5.974;2023-07-13T12:35:49;24.90;99.90
52107;DHT22;38105;52.968;5.974;2023-07-13T12:38:16;24.70;99.90
52107;DHT22;38105;52.968;5.974;2023-07-13T12:40:42;24.60;99.90
52107;DHT22;38105;52.968;5.974;2023-07-13T12:43:14;24.70;99.90
52107;DHT22;38105;52.968;5.974;2023-07-13T12:46:04;24.50;99.90
52107;DHT22;38105;52.968;5.974;2023-07-13T12:48:38;24.30;99.90
52107;DHT22;38105;52.968;5.974;2023-07-13T12:51:10;23.90;99.90
52107;DHT22;38105;52.968;5.974;2023-07-13T12:53:41;23.80;99.90
52107;DHT22;38105;52.968;5.974;2023-07-13T12:56:16;23.70;99.90
52107;DHT22;38105;52.968;5.974;2023-07-13T12:58:43;24.00;99.90
52107;DHT22;38105;52.968;5.974;2023-07-13T13:01:13;24.20;99.90
52107;DHT22;38105;52.968;5.974;2023-07-13T13:03:47;24.50;99.90
52107;DHT22;38105;52.968;5.974;2023-07-13T13:08:45;24.70;99.90
52107;DHT22;38105;52.968;5.974;2023-07-13T13:11:11;24.80;99.90
52107;DHT22;38105;52.968;5.974;2023-07-13T13:13:37;24.60;99.90
52107;DHT22;38105;52.968;5.974;2023-07-13T13:18:56;24.50;99.90
52107;DHT22;38105;52.968;5.974;2023-07-13T13:21:25;24.30;99.90
52107;DHT22;38105;52.968;5.974;2023-07-13T13:23:52;24.30;99.90
52107;DHT22;38105;52.968;5.974;2023-07-13T13:26:19;24.30;99.90
52107;DHT22;38105;52.968;5.974;2023-07-13T13:28:45;24.10;99.90
52107;DHT22;38105;52.968;5.974;2023-07-13T13:31:13;23.60;99.90
52107;DHT22;38105;52.968;5.974;2023-07-13T13:33:44;23.60;99.90
52107;DHT22;38105;52.968;5.974;2023-07-13T13:36:19;23.80;99.90
52107;DHT22;38105;52.968;5.974;2023-07-13T13:38:46;24.00;99.90
52107;DHT22;38105;52.968;5.974;2023-07-13T13:41:13;23.60;99.90
52107;DHT22;38105;52.968;5.974;2023-07-13T13:43:40;23.80;99.90
52107;DHT22;38105;52.968;5.974;2023-07-13T13:46:19;24.00;99.90
52107;DHT22;38105;52.968;5.974;2023-07-13T13:48:46;24.10;99.90
52107;DHT22;38105;52.968;5.974;2023-07-13T13:51:17;24.20;99.90
52107;DHT22;38105;52.968;5.974;2023-07-13T13:53:44;23.80;99.90
52107;DHT22;38105;52.968;5.974;2023-07-13T13:56:11;23.60;99.90
52107;DHT22;38105;52.968;5.974;2023-07-13T13:58:37;23.60;99.90
52107;DHT22;38105;52.968;5.974;2023-07-13T14:01:03;23.80;99.90
52107;DHT22;38105;52.968;5.974;2023-07-13T14:03:34;23.80;99.90
52107;DHT22;38105;52.968;5.974;2023-07-13T14:06:03;23.80;99.90
52107;DHT22;38105;52.968;5.974;2023-07-13T14:08:28;23.70;99.90
52107;DHT22;38105;52.968;5.974;2023-07-13T14:10:56;23.50;99.90
52107;DHT22;38105;52.968;5.974;2023-07-13T14:13:27;23.40;99.90
52107;DHT22;38105;52.968;5.974;2023-07-13T14:15:54;23.50;99.90
52107;DHT22;38105;52.968;5.974;2023-07-13T14:18:20;23.60;99.90
52107;DHT22;38105;52.968;5.974;2023-07-13T14:20:48;23.60;99.90
52107;DHT22;38105;52.968;5.974;2023-07-13T14:23:17;23.60;99.90
52107;DHT22;38105;52.968;5.974;2023-07-13T14:25:44;23.40;99.90
52107;DHT22;38105;52.968;5.974;2023-07-13T14:28:21;23.30;99.90
52107;DHT22;38105;52.968;5.974;2023-07-13T14:30:48;23.40;99.90
52107;DHT22;38105;52.968;5.974;2023-07-13T14:33:14;23.20;99.90
52107;DHT22;38105;52.968;5.974;2023-07-13T14:35:40;23.30;99.90
52107;DHT22;38105;52.968;5.974;2023-07-13T14:38:11;23.20;99.90
52107;DHT22;38105;52.968;5.974;2023-07-13T14:40:40;23.10;99.90
52107;DHT22;38105;52.968;5.974;2023-07-13T14:43:16;23.10;99.90
52107;DHT22;38105;52.968;5.974;2023-07-13T14:45:50;23.10;99.90
52107;DHT22;38105;52.968;5.974;2023-07-13T14:48:21;22.80;99.90
52107;DHT22;38105;52.968;5.974;2023-07-13T14:50:54;22.70;99.90
52107;DHT22;38105;52.968;5.974;2023-07-13T14:53:21;22.70;99.90
52107;DHT22;38105;52.968;5.974;2023-07-13T14:55:50;22.90;99.90
52107;DHT22;38105;52.968;5.974;2023-07-13T14:58:15;23.00;99.90
52107;DHT22;38105;52.968;5.974;2023-07-13T15:00:41;23.00;99.90
52107;DHT22;38105;52.968;5.974;2023-07-13T15:03:17;22.90;99.90
52107;DHT22;38105;52.968;5.974;2023-07-13T15:05:44;22.80;99.90
52107;DHT22;38105;52.968;5.974;2023-07-13T15:08:10;22.70;99.90
52107;DHT22;38105;52.968;5.974;2023-07-13T15:10:39;22.70;99.90
52107;DHT22;38105;52.968;5.974;2023-07-13T15:13:17;22.70;99.90
52107;DHT22;38105;52.968;5.974;2023-07-13T15:15:48;22.70;99.90
52107;DHT22;38105;52.968;5.974;2023-07-13T15:18:16;22.90;99.90
52107;DHT22;38105;52.968;5.974;2023-07-13T15:20:44;22.90;99.90
52107;DHT22;38105;52.968;5.974;2023-07-13T15:23:15;23.00;99.90
52107;DHT22;38105;52.968;5.974;2023-07-13T15:25:46;23.10;99.90
52107;DHT22;38105;52.968;5.974;2023-07-13T15:28:13;23.00;99.90
52107;DHT22;38105;52.968;5.974;2023-07-13T15:30:41;23.00;99.90
52107;DHT22;38105;52.968;5.974;2023-07-13T15:35:52;23.10;99.90
52107;DHT22;38105;52.968;5.974;2023-07-13T15:38:27;23.10;99.90
52107;DHT22;38105;52.968;5.974;2023-07-13T15:40:53;23.10;99.90
52107;DHT22;38105;52.968;5.974;2023-07-13T15:43:20;22.80;99.90
52107;DHT22;38105;52.968;5.974;2023-07-13T15:45:47;22.70;99.90
52107;DHT22;38105;52.968;5.974;2023-07-13T15:48:14;22.70;99.90
52107;DHT22;38105;52.968;5.974;2023-07-13T15:50:45;22.80;99.90
52107;DHT22;38105;52.968;5.974;2023-07-13T15:53:28;22.80;99.90
52107;DHT22;38105;52.968;5.974;2023-07-13T15:55:55;22.60;99.90
52107;DHT22;38105;52.968;5.974;2023-07-13T15:58:21;22.60;99.90
52107;DHT22;38105;52.968;5.974;2023-07-13T16:00:47;22.60;99.90
52107;DHT22;38105;52.968;5.974;2023-07-13T16:03:18;22.40;99.90
52107;DHT22;38105;52.968;5.974;2023-07-13T16:05:44;22.40;99.90
52107;DHT22;38105;52.968;5.974;2023-07-13T16:08:25;22.60;99.90
52107;DHT22;38105;52.968;5.974;2023-07-13T16:10:52;22.70;99.90
52107;DHT22;38105;52.968;5.974;2023-07-13T16:13:19;22.70;99.90
52107;DHT22;38105;52.968;5.974;2023-07-13T16:15:46;22.60;99.90
52107;DHT22;38105;52.968;5.974;2023-07-13T16:18:13;22.70;99.90
52107;DHT22;38105;52.968;5.974;2023-07-13T16:20:43;22.80;99.90